createdAt,value
2018-04-15T00:02:06.090Z,6.87
2018-04-15T00:04:34.199Z,6.05
2018-04-15T00:07:02.434Z,6.30
2018-04-15T00:09:30.552Z,6.37
2018-04-15T00:11:58.678Z,6.12
2018-04-15T00:14:26.807Z,5.95
2018-04-15T00:16:54.976Z,5.90
2018-04-15T00:19:23.195Z,6.75
2018-04-15T00:21:51.338Z,5.83
2018-04-15T00:24:20.336Z,5.60
2018-04-15T00:26:49.209Z,6.28
2018-04-15T00:29:18.237Z,6.05
2018-04-15T00:31:47.230Z,5.40
2018-04-15T00:34:15.338Z,5.80
2018-04-15T00:36:43.456Z,5.13
2018-04-15T00:39:11.748Z,6.07
2018-04-15T00:41:39.919Z,4.72
2018-04-15T00:44:08.103Z,5.22
2018-04-15T00:46:36.308Z,5.28
2018-04-15T00:49:04.435Z,5.32
2018-04-15T00:51:32.607Z,4.80
2018-04-15T00:54:13.315Z,5.53
2018-04-15T00:56:41.511Z,4.85
2018-04-15T00:59:09.651Z,5.22
2018-04-15T01:01:37.856Z,5.05
2018-04-15T01:04:06.781Z,5.00
2018-04-15T01:06:35.643Z,5.57
2018-04-15T01:09:04.565Z,4.45
2018-04-15T01:11:32.732Z,4.70
2018-04-15T01:14:01.684Z,4.80
2018-04-15T01:16:30.714Z,5.10
2018-04-15T01:18:58.820Z,6.40
2018-04-15T01:21:26.942Z,5.10
2018-04-15T01:23:55.079Z,5.90
2018-04-15T01:26:23.301Z,6.07
2018-04-15T01:28:52.190Z,5.20
2018-04-15T01:31:20.281Z,5.82
2018-04-15T01:33:48.417Z,6.10
2018-04-15T01:36:16.610Z,5.70
2018-04-15T01:38:44.712Z,6.45
2018-04-15T01:41:12.950Z,5.90
2018-04-15T01:43:41.931Z,5.30
2018-04-15T01:46:10.113Z,5.22
2018-04-15T01:48:38.965Z,5.22
2018-04-15T01:51:07.889Z,5.70
2018-04-15T01:53:36.779Z,5.68
2018-04-15T01:56:05.772Z,5.43
2018-04-15T01:58:33.880Z,4.70
2018-04-15T02:01:02.036Z,4.40
2018-04-15T02:03:30.183Z,4.55
2018-04-15T02:05:59.043Z,5.15
2018-04-15T02:08:27.931Z,4.80
2018-04-15T02:10:56.911Z,4.90
2018-04-15T02:13:25.843Z,4.30
2018-04-15T02:15:54.732Z,4.57
2018-04-15T02:18:23.598Z,4.80
2018-04-15T02:20:52.475Z,4.22
2018-04-15T02:23:21.355Z,4.45
2018-04-15T02:25:49.530Z,5.25
2018-04-15T02:28:18.464Z,5.10
2018-04-15T02:30:47.322Z,5.43
2018-04-15T02:33:16.342Z,4.85
2018-04-15T02:35:44.825Z,4.45
2018-04-15T02:38:13.005Z,5.05
2018-04-15T02:40:41.112Z,5.43
2018-04-15T02:43:09.297Z,3.58
2018-04-15T02:45:37.514Z,4.82
2018-04-15T02:48:05.602Z,4.82
2018-04-15T02:50:33.753Z,4.28
2018-04-15T02:53:01.933Z,4.95
2018-04-15T02:55:30.056Z,4.97
2018-04-15T02:57:58.923Z,5.60
2018-04-15T03:00:27.127Z,4.75
2018-04-15T03:02:56.048Z,5.47
2018-04-15T03:05:24.926Z,4.80
2018-04-15T03:07:53.025Z,5.37
2018-04-15T03:10:21.138Z,4.30
2018-04-15T03:12:50.021Z,4.53
2018-04-15T03:15:19.020Z,5.65
2018-04-15T03:17:48.051Z,6.55
2018-04-15T03:20:16.941Z,5.68
2018-04-15T03:22:45.794Z,5.93
2018-04-15T03:25:14.675Z,6.28
2018-04-15T03:27:43.555Z,5.70
2018-04-15T03:30:11.780Z,6.10
2018-04-15T03:32:39.951Z,6.07
2018-04-15T03:35:08.820Z,7.05
2018-04-15T03:37:37.012Z,6.68
2018-04-15T03:40:05.900Z,5.65
2018-04-15T03:42:34.746Z,6.53
2018-04-15T03:45:03.645Z,5.95
2018-04-15T03:47:32.515Z,6.40
2018-04-15T03:50:00.626Z,6.37
2018-04-15T03:52:28.809Z,5.77
2018-04-15T03:54:57.656Z,5.47
2018-04-15T03:57:25.871Z,6.22
2018-04-15T03:59:54.762Z,5.97
2018-04-15T04:02:23.618Z,6.03
2018-04-15T04:04:52.538Z,6.12
2018-04-15T04:07:20.630Z,5.63
2018-04-15T04:09:48.884Z,5.82
2018-04-15T04:12:17.742Z,6.20
2018-04-15T04:14:46.765Z,5.72
2018-04-15T04:17:14.866Z,6.00
2018-04-15T04:19:54.883Z,5.25
2018-04-15T04:22:36.470Z,5.20
2018-04-15T04:25:17.053Z,5.20
2018-04-15T04:27:45.263Z,5.22
2018-04-15T04:30:14.144Z,6.00
2018-04-15T04:32:42.328Z,6.43
2018-04-15T04:35:10.548Z,6.18
2018-04-15T04:37:38.682Z,6.40
2018-04-15T04:40:07.567Z,5.12
2018-04-15T04:42:36.493Z,6.50
2018-04-15T04:45:05.451Z,5.75
2018-04-15T04:47:34.373Z,5.90
2018-04-15T04:50:03.211Z,6.12
2018-04-15T04:52:32.150Z,6.30
2018-04-15T04:55:00.999Z,6.00
2018-04-15T04:57:29.893Z,6.65
2018-04-15T04:59:58.786Z,6.60
2018-04-15T05:02:27.705Z,7.28
2018-04-15T05:04:56.595Z,5.68
2018-04-15T05:07:25.447Z,6.47
2018-04-15T05:09:54.475Z,5.55
2018-04-15T05:12:23.364Z,6.70
2018-04-15T05:14:52.214Z,6.55
2018-04-15T05:17:21.107Z,7.00
2018-04-15T05:19:49.987Z,6.12
2018-04-15T05:22:18.204Z,6.35
2018-04-15T05:24:47.061Z,7.07
2018-04-15T05:27:15.958Z,6.95
2018-04-15T05:29:44.870Z,7.82
2018-04-15T05:32:13.801Z,6.12
2018-04-15T05:34:41.906Z,7.18
2018-04-15T05:37:10.884Z,7.28
2018-04-15T05:39:39.769Z,6.40
2018-04-15T05:42:07.882Z,6.55
2018-04-15T05:44:36.053Z,5.85
2018-04-15T05:47:04.248Z,5.65
2018-04-15T05:49:32.364Z,5.85
2018-04-15T05:52:00.527Z,5.27
2018-04-15T05:54:28.644Z,5.47
2018-04-15T05:56:56.768Z,5.57
2018-04-15T05:59:25.748Z,5.40
2018-04-15T06:01:53.876Z,4.80
2018-04-15T06:04:22.821Z,5.37
2018-04-15T06:06:51.704Z,6.30
2018-04-15T06:09:19.927Z,5.43
2018-04-15T06:11:48.802Z,5.57
2018-04-15T06:14:17.705Z,4.97
2018-04-15T06:16:46.730Z,5.68
2018-04-15T06:19:14.847Z,5.53
2018-04-15T06:21:43.723Z,6.10
2018-04-15T06:24:12.623Z,5.90
2018-04-15T06:26:41.606Z,5.40
2018-04-15T06:29:10.651Z,5.95
2018-04-15T06:31:38.876Z,5.72
2018-04-15T06:34:07.792Z,5.75
2018-04-15T06:36:36.640Z,5.20
2018-04-15T06:39:05.590Z,5.70
2018-04-15T06:41:33.675Z,6.50
2018-04-15T06:44:01.825Z,5.82
2018-04-15T06:46:29.986Z,5.75
2018-04-15T06:48:58.160Z,6.00
2018-04-15T06:51:26.331Z,5.23
2018-04-15T06:53:54.467Z,4.72
2018-04-15T06:56:23.355Z,5.57
2018-04-15T06:58:52.286Z,5.50
2018-04-15T07:01:20.453Z,5.80
2018-04-15T07:03:48.567Z,5.25
2018-04-15T07:06:16.717Z,4.43
2018-04-15T07:08:44.828Z,5.05
2018-04-15T07:11:13.730Z,4.57
2018-04-15T07:13:42.652Z,4.10
2018-04-15T07:16:10.836Z,4.07
2018-04-15T07:18:39.003Z,4.40
2018-04-15T07:21:07.175Z,4.82
2018-04-15T07:23:35.306Z,4.20
2018-04-15T07:26:04.185Z,4.87
2018-04-15T07:28:33.113Z,4.15
2018-04-15T07:31:01.397Z,3.83
2018-04-15T07:33:29.519Z,4.18
2018-04-15T07:35:57.745Z,5.22
2018-04-15T07:38:25.854Z,4.23
2018-04-15T07:40:54.772Z,4.95
2018-04-15T07:43:22.912Z,4.37
2018-04-15T07:45:51.137Z,5.12
2018-04-15T07:48:19.248Z,5.37
2018-04-15T07:50:47.380Z,5.27
2018-04-15T07:53:15.556Z,5.13
2018-04-15T07:55:43.687Z,6.00
2018-04-15T07:58:11.896Z,6.33
2018-04-15T08:00:40.765Z,5.27
2018-04-15T08:03:08.932Z,5.07
2018-04-15T08:05:37.854Z,6.10
2018-04-15T08:08:06.020Z,5.90
2018-04-15T08:10:34.201Z,5.80
2018-04-15T08:13:02.312Z,5.63
2018-04-15T08:15:30.509Z,5.77
2018-04-15T08:17:59.409Z,6.00
2018-04-15T08:20:27.597Z,5.23
2018-04-15T08:22:55.769Z,6.00
2018-04-15T08:25:23.951Z,6.20
2018-04-15T08:27:52.058Z,6.30
2018-04-15T08:30:21.821Z,6.90
2018-04-15T08:32:50.715Z,7.33
2018-04-15T08:35:18.989Z,6.60
2018-04-15T08:37:47.231Z,6.57
2018-04-15T08:40:16.229Z,7.53
2018-04-15T08:42:44.391Z,6.87
2018-04-15T08:45:12.557Z,7.10
2018-04-15T08:47:42.201Z,6.00
2018-04-15T08:50:10.371Z,6.10
2018-04-15T08:52:38.533Z,7.20
2018-04-15T08:55:06.675Z,6.80
2018-04-15T08:57:35.571Z,6.40
2018-04-15T09:00:04.604Z,5.90
2018-04-15T09:02:32.709Z,6.43
2018-04-15T09:05:00.943Z,6.63
2018-04-15T09:07:29.842Z,6.00
2018-04-15T09:09:57.973Z,6.50
2018-04-15T09:12:26.178Z,6.77
2018-04-15T09:14:54.356Z,7.47
2018-04-15T09:17:22.654Z,6.23
2018-04-15T09:19:50.898Z,5.50
2018-04-15T09:22:19.785Z,6.70
2018-04-15T09:24:47.961Z,6.97
2018-04-15T09:27:16.070Z,6.70
2018-04-15T09:29:44.304Z,6.80
2018-04-15T09:32:13.231Z,7.47
2018-04-15T09:34:41.470Z,6.60
2018-04-15T09:37:09.639Z,5.90
2018-04-15T09:39:37.796Z,6.60
2018-04-15T09:42:06.810Z,6.30
2018-04-15T09:44:34.976Z,6.27
2018-04-15T09:47:03.152Z,6.40
2018-04-15T09:49:31.303Z,5.70
2018-04-15T09:51:59.453Z,7.07
2018-04-15T09:54:28.497Z,6.63
2018-04-15T09:56:56.654Z,7.10
2018-04-15T09:59:24.797Z,5.93
2018-04-15T10:01:53.820Z,6.03
2018-04-15T10:04:21.968Z,7.00
2018-04-15T10:06:50.169Z,6.37
2018-04-15T10:09:18.308Z,7.17
2018-04-15T10:11:47.433Z,6.93
2018-04-15T10:14:15.547Z,6.70
2018-04-15T10:16:43.775Z,6.70
2018-04-15T10:19:11.956Z,7.00
2018-04-15T10:21:40.096Z,7.10
2018-04-15T10:24:09.101Z,5.90
2018-04-15T10:26:37.157Z,6.97
2018-04-15T10:29:05.303Z,6.37
2018-04-15T10:31:33.538Z,6.20
2018-04-15T10:34:01.651Z,6.73
2018-04-15T10:36:29.805Z,6.80
2018-04-15T10:38:57.950Z,6.43
2018-04-15T10:41:26.113Z,6.87
2018-04-15T10:43:54.300Z,6.17
2018-04-15T10:46:22.475Z,6.30
2018-04-15T10:48:50.630Z,6.80
2018-04-15T10:51:18.810Z,6.90
2018-04-15T10:53:47.077Z,6.57
2018-04-15T10:56:16.048Z,6.80
2018-04-15T10:58:44.173Z,7.10
2018-04-15T11:01:12.304Z,7.23
2018-04-15T11:03:40.457Z,5.97
2018-04-15T11:06:08.667Z,6.20
2018-04-15T11:08:36.892Z,6.77
2018-04-15T11:11:05.124Z,7.30
2018-04-15T11:13:33.277Z,6.90
2018-04-15T11:16:02.266Z,6.00
2018-04-15T11:18:30.432Z,5.80
2018-04-15T11:20:58.620Z,6.70
2018-04-15T11:23:26.764Z,6.90
2018-04-15T11:25:55.781Z,6.90
2018-04-15T11:28:23.918Z,6.43
2018-04-15T11:30:52.848Z,6.20
2018-04-15T11:33:20.978Z,6.20
2018-04-15T11:35:49.882Z,6.43
2018-04-15T11:38:18.790Z,7.47
2018-04-15T11:40:46.959Z,6.67
2018-04-15T11:43:15.236Z,5.90
2018-04-15T11:45:43.330Z,5.87
2018-04-15T11:48:11.546Z,6.20
2018-04-15T11:50:40.433Z,7.73
2018-04-15T11:53:09.360Z,7.17
2018-04-15T11:55:37.493Z,7.63
2018-04-15T11:58:05.701Z,7.33
2018-04-15T12:00:34.610Z,7.83
2018-04-15T12:03:02.868Z,7.67
2018-04-15T12:05:31.865Z,8.47
2018-04-15T12:08:00.006Z,9.47
2018-04-15T12:10:28.201Z,8.23
2018-04-15T12:12:57.203Z,7.63
2018-04-15T12:15:25.315Z,8.23
2018-04-15T12:17:55.076Z,9.40
2018-04-15T12:20:23.247Z,8.77
2018-04-15T12:22:52.209Z,9.40
2018-04-15T12:25:21.129Z,10.57
2018-04-15T12:27:49.276Z,9.00
2018-04-15T12:30:18.195Z,8.73
2018-04-15T12:32:46.323Z,9.20
2018-04-15T12:35:14.543Z,8.93
2018-04-15T12:37:42.717Z,9.20
2018-04-15T12:40:10.879Z,9.80
2018-04-15T12:42:39.776Z,10.37
2018-04-15T12:45:07.954Z,8.70
2018-04-15T12:47:36.082Z,8.60
2018-04-15T12:50:05.002Z,8.30
2018-04-15T12:52:33.288Z,8.90
2018-04-15T12:55:01.452Z,7.80
2018-04-15T12:57:29.592Z,9.13
2018-04-15T12:59:59.505Z,8.20
2018-04-15T13:02:28.527Z,8.40
2018-04-15T13:04:56.656Z,8.87
2018-04-15T13:07:24.877Z,7.57
2018-04-15T13:09:53.015Z,8.43
2018-04-15T13:12:21.943Z,8.03
2018-04-15T13:14:50.080Z,8.87
2018-04-15T13:17:19.023Z,8.43
2018-04-15T13:19:47.170Z,7.20
2018-04-15T13:22:16.070Z,7.57
2018-04-15T13:24:44.168Z,9.00
2018-04-15T13:27:12.410Z,8.13
2018-04-15T13:29:40.574Z,9.13
2018-04-15T13:32:09.565Z,8.80
2018-04-15T13:34:38.456Z,8.43
2018-04-15T13:37:06.585Z,8.37
2018-04-15T13:39:34.800Z,7.20
2018-04-15T13:42:03.650Z,8.30
2018-04-15T13:44:32.581Z,8.63
2018-04-15T13:47:01.502Z,8.10
2018-04-15T13:49:29.595Z,8.67
2018-04-15T13:51:58.491Z,8.37
2018-04-15T13:54:27.477Z,8.47
2018-04-15T13:56:55.592Z,9.00
2018-04-15T13:59:23.764Z,7.73
2018-04-15T14:01:52.622Z,8.63
2018-04-15T14:04:21.655Z,7.90
2018-04-15T14:06:49.781Z,8.97
2018-04-15T14:09:18.910Z,10.30
2018-04-15T14:11:47.321Z,10.10
2018-04-15T14:14:15.463Z,10.27
2018-04-15T14:16:43.737Z,10.60
2018-04-15T14:19:12.646Z,10.20
2018-04-15T14:21:40.907Z,9.67
2018-04-15T14:24:09.053Z,10.27
2018-04-15T14:26:38.061Z,10.90
2018-04-15T14:29:07.060Z,10.83
2018-04-15T14:31:35.171Z,10.20
2018-04-15T14:34:03.406Z,9.03
2018-04-15T14:36:31.534Z,10.93
2018-04-15T14:38:59.672Z,10.17
2018-04-15T14:41:27.811Z,11.07
2018-04-15T14:43:56.907Z,10.10
2018-04-15T14:46:25.078Z,10.00
2018-04-15T14:48:53.972Z,9.00
2018-04-15T14:51:22.107Z,9.17
2018-04-15T14:53:51.133Z,10.20
2018-04-15T14:56:19.268Z,9.70
2018-04-15T14:58:47.581Z,8.70
2018-04-15T15:01:15.760Z,8.97
2018-04-15T15:03:43.912Z,9.07
2018-04-15T15:06:12.072Z,9.40
2018-04-15T15:08:40.275Z,9.43
2018-04-15T15:11:08.390Z,9.70
2018-04-15T15:13:36.616Z,10.50
2018-04-15T15:16:04.922Z,9.77
2018-04-15T15:18:33.150Z,10.20
2018-04-15T15:21:01.302Z,9.33
2018-04-15T15:23:29.507Z,9.67
2018-04-15T15:25:58.480Z,10.10
2018-04-15T15:28:26.608Z,10.27
2018-04-15T15:30:54.772Z,9.93
2018-04-15T15:33:22.915Z,10.40
2018-04-15T15:35:51.097Z,9.47
2018-04-15T15:38:19.222Z,10.33
2018-04-15T15:40:48.206Z,10.50
2018-04-15T15:43:17.141Z,9.83
2018-04-15T15:45:45.285Z,11.23
2018-04-15T15:48:14.205Z,11.50
2018-04-15T15:50:42.348Z,10.10
2018-04-15T15:53:11.233Z,10.80
2018-04-15T15:55:40.174Z,11.00
2018-04-15T15:58:08.311Z,10.10
2018-04-15T16:00:37.316Z,10.93
2018-04-15T16:03:05.453Z,11.00
2018-04-15T16:05:34.481Z,11.20
2018-04-15T16:08:02.658Z,10.50
2018-04-15T16:10:30.827Z,11.00
2018-04-15T16:12:58.996Z,11.77
2018-04-15T16:15:27.148Z,9.80
2018-04-15T16:17:56.163Z,10.43
2018-04-15T16:20:24.307Z,10.97
2018-04-15T16:22:53.192Z,9.90
2018-04-15T16:25:22.215Z,10.43
2018-04-15T16:27:50.489Z,9.97
2018-04-15T16:30:19.391Z,9.90
2018-04-15T16:32:47.553Z,10.37
2018-04-15T16:35:15.708Z,11.67
2018-04-15T16:37:43.868Z,10.33
2018-04-15T16:40:12.813Z,10.60
2018-04-15T16:42:40.956Z,11.47
2018-04-15T16:45:09.223Z,10.73
2018-04-15T16:47:37.348Z,12.23
2018-04-15T16:50:05.578Z,11.10
2018-04-15T16:52:33.719Z,11.50
2018-04-15T16:55:01.921Z,11.27
2018-04-15T16:57:30.061Z,11.47
2018-04-15T16:59:59.109Z,12.27
2018-04-15T17:02:27.263Z,11.60
2018-04-15T17:04:55.397Z,11.47
2018-04-15T17:07:24.295Z,11.70
2018-04-15T17:09:52.494Z,11.60
2018-04-15T17:12:20.665Z,11.60
2018-04-15T17:14:48.807Z,11.77
2018-04-15T17:17:16.943Z,11.40
2018-04-15T17:19:45.199Z,11.40
2018-04-15T17:22:13.434Z,9.80
2018-04-15T17:24:42.412Z,8.90
2018-04-15T17:27:10.617Z,9.70
2018-04-15T17:29:38.790Z,11.87
2018-04-15T17:32:06.993Z,11.70
2018-04-15T17:34:35.084Z,11.17
2018-04-15T17:37:03.307Z,10.60
2018-04-15T17:39:31.467Z,11.10
2018-04-15T17:41:59.613Z,11.20
2018-04-15T17:44:28.548Z,10.20
2018-04-15T17:46:56.695Z,10.70
2018-04-15T17:49:25.633Z,10.40
2018-04-15T17:51:53.766Z,10.90
2018-04-15T17:54:22.060Z,11.30
2018-04-15T17:56:50.197Z,9.87
2018-04-15T17:59:19.158Z,12.20
2018-04-15T18:01:47.395Z,10.53
2018-04-15T18:04:15.569Z,10.60
2018-04-15T18:06:43.738Z,10.17
2018-04-15T18:09:12.155Z,10.63
2018-04-15T18:11:40.295Z,10.43
2018-04-15T18:14:08.565Z,12.03
2018-04-15T18:16:36.832Z,11.97
2018-04-15T18:19:04.953Z,11.10
2018-04-15T18:21:33.121Z,11.10
2018-04-15T18:24:01.350Z,11.90
2018-04-15T18:26:29.521Z,11.50
2018-04-15T18:28:57.656Z,11.37
2018-04-15T18:31:26.685Z,11.80
2018-04-15T18:33:54.826Z,11.80
2018-04-15T18:36:22.963Z,12.40
2018-04-15T18:38:51.203Z,11.90
2018-04-15T18:41:19.389Z,13.10
2018-04-15T18:43:47.648Z,13.43
2018-04-15T18:46:15.812Z,11.87
2018-04-15T18:48:44.000Z,11.43
2018-04-15T18:51:12.175Z,11.60
2018-04-15T18:53:40.344Z,10.60
2018-04-15T18:56:08.486Z,11.70
2018-04-15T18:58:36.682Z,11.40
2018-04-15T19:01:04.859Z,11.73
2018-04-15T19:03:32.992Z,12.33
2018-04-15T19:06:02.027Z,11.97
2018-04-15T19:08:30.170Z,12.17
2018-04-15T19:10:59.191Z,13.00
2018-04-15T19:13:27.420Z,13.40
2018-04-15T19:15:57.107Z,13.80
2018-04-15T19:18:25.340Z,12.00
2018-04-15T19:20:53.622Z,11.57
2018-04-15T19:23:21.840Z,13.47
2018-04-15T19:25:50.024Z,13.10
2018-04-15T19:28:18.198Z,12.40
2018-04-15T19:30:46.406Z,13.33
2018-04-15T19:33:14.536Z,12.73
2018-04-15T19:35:43.465Z,12.77
2018-04-15T19:38:11.601Z,11.57
2018-04-15T19:40:40.632Z,12.40
2018-04-15T19:43:08.767Z,13.03
2018-04-15T19:45:37.010Z,13.23
2018-04-15T19:48:05.147Z,14.90
2018-04-15T19:50:33.433Z,12.00
2018-04-15T19:53:01.613Z,12.90
2018-04-15T19:55:29.873Z,12.50
2018-04-15T19:57:57.985Z,14.87
2018-04-15T20:00:26.179Z,70.67
2018-04-15T20:02:55.131Z,18.03
2018-04-15T20:05:23.380Z,14.67
2018-04-15T20:07:51.514Z,14.00
2018-04-15T20:10:19.757Z,13.60
2018-04-15T20:12:48.001Z,13.90
2018-04-15T20:15:16.119Z,14.87
2018-04-15T20:17:44.342Z,13.00
2018-04-15T20:20:12.519Z,15.50
2018-04-15T20:22:40.679Z,17.63
2018-04-15T20:25:08.841Z,17.27
2018-04-15T20:27:37.864Z,27.27
2018-04-15T20:30:06.033Z,28.70
2018-04-15T20:32:34.193Z,13.53
2018-04-15T20:35:02.360Z,11.40
2018-04-15T20:37:30.695Z,11.07
2018-04-15T20:39:58.930Z,11.30
2018-04-15T20:42:27.065Z,11.90
2018-04-15T20:44:56.079Z,11.47
2018-04-15T20:47:24.208Z,14.50
2018-04-15T20:49:52.423Z,13.90
2018-04-15T20:52:20.563Z,11.93
2018-04-15T20:54:48.696Z,15.97
2018-04-15T20:57:17.040Z,17.50
2018-04-15T20:59:45.152Z,12.10
2018-04-15T21:02:13.335Z,11.13
2018-04-15T21:04:41.478Z,11.97
2018-04-15T21:07:09.741Z,11.70
2018-04-15T21:09:37.872Z,12.13
2018-04-15T21:12:07.030Z,12.30
2018-04-15T21:14:35.178Z,12.43
2018-04-15T21:17:03.336Z,11.63
2018-04-15T21:19:31.478Z,12.03
2018-04-15T21:22:00.506Z,12.37
2018-04-15T21:24:28.616Z,12.10
2018-04-15T21:26:56.803Z,12.53
2018-04-15T21:29:25.027Z,12.13
2018-04-15T21:31:53.151Z,12.67
2018-04-15T21:34:22.088Z,12.47
2018-04-15T21:36:50.207Z,12.90
2018-04-15T21:39:18.332Z,14.07
2018-04-15T21:41:46.603Z,13.93
2018-04-15T21:44:14.716Z,14.67
2018-04-15T21:46:43.643Z,13.50
2018-04-15T21:49:11.808Z,13.00
2018-04-15T21:51:40.721Z,14.40
2018-04-15T21:54:08.857Z,15.53
2018-04-15T21:56:37.798Z,14.00
2018-04-15T21:59:05.960Z,13.47
2018-04-15T22:01:34.117Z,15.60
2018-04-15T22:04:02.273Z,16.20
2018-04-15T22:06:31.172Z,15.17
2018-04-15T22:09:00.157Z,16.73
2018-04-15T22:11:40.951Z,15.80
2018-04-15T22:14:09.135Z,15.77
2018-04-15T22:16:37.265Z,14.90
2018-04-15T22:19:06.200Z,14.73
2018-04-15T22:21:34.345Z,14.70
2018-04-15T22:24:03.221Z,14.77
2018-04-15T22:26:31.355Z,16.17
2018-04-15T22:28:59.507Z,16.70
2018-04-15T22:31:27.644Z,15.40
2018-04-15T22:33:55.859Z,15.70
2018-04-15T22:36:23.985Z,16.03
2018-04-15T22:38:52.192Z,15.77
2018-04-15T22:41:21.032Z,16.43
2018-04-15T22:43:49.956Z,15.13
2018-04-15T22:46:18.107Z,15.47
2018-04-15T22:48:46.304Z,15.20
2018-04-15T22:51:14.414Z,15.70
2018-04-15T22:53:42.572Z,14.77
2018-04-15T22:56:10.712Z,15.77
2018-04-15T22:58:44.465Z,15.73
2018-04-15T23:01:12.696Z,14.70
2018-04-15T23:03:40.864Z,17.40
2018-04-15T23:06:08.999Z,16.53
2018-04-15T23:08:37.924Z,14.87
2018-04-15T23:11:06.114Z,15.18
2018-04-15T23:13:34.259Z,15.40
2018-04-15T23:16:02.387Z,15.93
2018-04-15T23:18:30.525Z,16.25
2018-04-15T23:20:58.685Z,15.95
2018-04-15T23:23:26.824Z,16.27
2018-04-15T23:25:54.963Z,15.70
2018-04-15T23:28:24.756Z,15.45
2018-04-15T23:30:52.875Z,16.05
2018-04-15T23:33:21.903Z,16.42
2018-04-15T23:35:50.016Z,15.73
2018-04-15T23:38:18.255Z,16.12
2018-04-15T23:40:46.373Z,15.63
2018-04-15T23:43:14.693Z,16.10
2018-04-15T23:45:42.827Z,17.17
2018-04-15T23:48:11.857Z,16.02
2018-04-15T23:50:39.983Z,14.45
2018-04-15T23:53:08.115Z,15.13
2018-04-15T23:55:36.274Z,14.93
2018-04-15T23:58:04.402Z,15.80
